Time;durP1;ratioP1;P1;durP2;ratioP2;P2;SDS_P1;SDS_P2;PMS_P1;PMS_P2;Temp;Humidity;BMP_temperature;BMP_pressure;BME280_temperature;BME280_humidity;BME280_pressure;Samples;Min_cycle;Max_cycle;Signal;HPM_P1;HPM_P2
2021/11/30 00:02:02;;;;;;;0.85;0.20;;;20.90;24.20;21.40;93824.00;;;;10374563;28;47113;-63
2021/11/30 00:07:03;;;;;;;0.20;0.10;;;20.90;24.20;21.40;93819.00;;;;10392070;28;47407;-61
2021/11/30 00:12:21;;;;;;;0.30;0.20;;;20.90;24.20;21.40;93818.00;;;;10391850;28;45205;-62
2021/11/30 00:17:23;;;;;;;0.30;0.20;;;20.90;24.20;21.40;93837.00;;;;10390260;28;45401;-62
2021/11/30 00:22:24;;;;;;;0.43;0.20;;;20.90;24.20;21.40;93838.00;;;;10397654;28;46132;-62
2021/11/30 00:27:25;;;;;;;0.20;0.20;;;20.90;24.20;21.40;93833.00;;;;10397998;28;45425;-62
2021/11/30 00:32:26;;;;;;;0.82;0.30;;;20.90;24.20;21.40;93833.00;;;;10398804;28;45721;-62
2021/11/30 00:37:27;;;;;;;0.52;0.30;;;20.90;24.10;21.30;93824.00;;;;10397954;28;45391;-62
2021/11/30 00:42:28;;;;;;;0.30;0.20;;;20.80;24.10;21.40;93834.00;;;;10396737;28;45420;-63
2021/11/30 00:47:30;;;;;;;0.25;0.17;;;20.80;24.10;21.30;93847.00;;;;10396808;28;45427;-60
2021/11/30 00:52:31;;;;;;;1.02;0.30;;;20.90;24.10;21.30;93854.00;;;;10398501;28;45311;-62
2021/11/30 00:57:32;;;;;;;0.43;0.20;;;20.80;24.10;21.30;93856.00;;;;10396618;28;45201;-63
2021/11/30 01:02:32;;;;;;;0.60;0.20;;;20.80;24.20;21.30;93849.00;;;;10397441;28;45340;-63
2021/11/30 01:07:35;;;;;;;0.25;0.25;;;20.80;24.10;21.30;93868.00;;;;10379066;28;47522;-64
2021/11/30 01:12:36;;;;;;;0.70;0.20;;;20.80;24.00;21.30;93865.00;;;;10396376;28;45432;-63
2021/11/30 01:17:37;;;;;;;0.73;0.30;;;20.80;24.10;21.30;93872.00;;;;10394711;28;46500;-63
2021/11/30 01:22:40;;;;;;;0.57;0.20;;;20.80;24.10;21.30;93868.00;;;;10379758;28;46975;-61
2021/11/30 01:27:41;;;;;;;0.57;0.30;;;20.80;24.10;21.20;93886.00;;;;10396289;28;46545;-63
2021/11/30 01:32:44;;;;;;;0.40;0.30;;;20.80;24.00;21.30;93886.00;;;;10393837;28;47786;-62
2021/11/30 01:37:46;;;;;;;0.20;0.20;;;20.80;24.00;21.20;93900.00;;;;10411729;28;47413;-63
2021/11/30 01:42:50;;;;;;;1.08;0.30;;;20.80;24.00;21.20;93912.00;;;;10395587;28;45260;-62
2021/11/30 01:53:14;;;;;;;0.68;0.22;;;20.60;24.00;21.20;93935.00;;;;10374616;28;46290;-62
2021/11/30 01:58:16;;;;;;;0.93;0.30;;;20.80;24.00;21.30;93939.00;;;;10393382;28;46301;-62
2021/11/30 02:03:17;;;;;;;0.20;0.20;;;20.70;24.60;21.30;93924.00;;;;10389049;28;45172;-62
2021/11/30 02:08:17;;;;;;;0.73;0.30;;;20.80;24.00;21.30;93921.00;;;;10376674;28;47307;-64
2021/11/30 02:13:18;;;;;;;0.30;0.20;;;20.80;24.00;21.30;93932.00;;;;10395349;28;45434;-62
2021/11/30 02:18:23;;;;;;;1.75;0.35;;;20.80;24.00;21.20;93923.00;;;;10394356;28;45207;-62
2021/11/30 02:23:34;;;;;;;0.98;0.30;;;20.80;24.00;21.20;93924.00;;;;10395784;28;45162;-62
2021/11/30 02:28:34;;;;;;;0.45;0.20;;;20.70;24.00;21.20;93915.00;;;;10394159;28;45197;-62
2021/11/30 02:33:37;;;;;;;0.40;0.20;;;20.70;24.00;21.20;93933.00;;;;10395177;28;45294;-60
2021/11/30 02:38:37;;;;;;;0.47;0.20;;;20.70;24.00;21.20;93940.00;;;;10392571;28;45501;-62
2021/11/30 02:43:38;;;;;;;0.85;0.30;;;20.70;24.10;21.20;93937.00;;;;10392295;28;46212;-61
2021/11/30 02:48:38;;;;;;;0.55;0.22;;;20.80;24.00;21.20;93940.00;;;;10394947;28;45566;-63
2021/11/30 02:53:39;;;;;;;1.10;0.20;;;20.70;24.00;21.20;93939.00;;;;10393638;28;45181;-63
2021/11/30 02:58:40;;;;;;;0.30;0.15;;;20.70;24.10;21.20;93935.00;;;;10393617;28;45374;-61
2021/11/30 03:03:41;;;;;;;0.35;0.10;;;20.70;24.00;21.20;93938.00;;;;10392563;28;45264;-61
2021/11/30 03:08:43;;;;;;;0.40;0.25;;;20.70;24.00;21.20;93939.00;;;;10392365;28;45372;-62
2021/11/30 03:13:43;;;;;;;0.82;0.30;;;20.70;24.00;21.20;93947.00;;;;10391658;28;47245;-60
2021/11/30 03:18:45;;;;;;;0.22;0.20;;;20.70;24.00;21.20;93938.00;;;;10392636;28;46436;-62
2021/11/30 03:23:46;;;;;;;0.10;0.10;;;20.70;24.00;21.20;93930.00;;;;10394301;28;45182;-61
2021/11/30 03:28:46;;;;;;;0.47;0.20;;;20.70;23.90;21.20;93946.00;;;;10375497;28;46985;-63
2021/11/30 03:33:59;;;;;;;0.40;0.10;;;20.70;24.00;21.10;93948.00;;;;10392141;28;45532;-63
2021/11/30 03:39:05;;;;;;;0.40;0.20;;;20.70;24.00;21.20;93961.00;;;;10391565;28;47135;-62
2021/11/30 03:44:07;;;;;;;0.73;0.20;;;20.60;24.00;21.10;93941.00;;;;10391560;28;46311;-61
2021/11/30 03:49:11;;;;;;;0.70;0.20;;;20.70;24.00;21.10;93967.00;;;;10391394;28;46085;-61
2021/11/30 03:54:13;;;;;;;0.65;0.10;;;20.60;24.00;21.10;93974.00;;;;10392373;28;45237;-62
2021/11/30 03:59:15;;;;;;;0.50;0.17;;;20.70;24.00;21.10;93971.00;;;;10400071;28;45226;-63
2021/11/30 04:04:23;;;;;;;0.40;0.20;;;20.60;23.90;21.10;93964.00;;;;10398215;28;46902;-63
2021/11/30 04:09:26;;;;;;;0.60;0.20;;;20.60;23.90;21.10;93948.00;;;;10381253;28;45317;-63
2021/11/30 04:14:26;;;;;;;0.43;0.20;;;20.60;23.90;21.10;93960.00;;;;10398344;28;47201;-61
2021/11/30 04:19:27;;;;;;;0.73;0.20;;;20.60;23.90;21.10;93962.00;;;;10397084;28;45222;-62
2021/11/30 04:24:28;;;;;;;0.43;0.15;;;20.60;24.00;21.10;93972.00;;;;10398157;28;45338;-62
2021/11/30 04:29:28;;;;;;;0.20;0.10;;;20.60;23.90;21.10;93966.00;;;;10396874;28;45267;-61
2021/11/30 04:34:29;;;;;;;0.77;0.20;;;20.60;23.90;21.10;93957.00;;;;10398734;28;45487;-61
2021/11/30 04:39:30;;;;;;;0.50;0.13;;;20.60;23.80;21.10;93948.00;;;;10398075;28;45425;-62
2021/11/30 04:44:33;;;;;;;0.22;0.10;;;20.60;23.90;21.10;93953.00;;;;10397582;28;45491;-62
2021/11/30 04:54:35;;;;;;;0.10;0.10;;;20.60;23.90;21.10;93959.00;;;;10397177;28;45214;-62
2021/11/30 04:59:36;;;;;;;0.38;0.10;;;20.60;23.80;21.10;93958.00;;;;10397582;28;45426;-63
2021/11/30 05:04:38;;;;;;;0.25;0.20;;;20.60;23.80;21.10;93935.00;;;;10395821;28;46380;-62
2021/11/30 05:09:38;;;;;;;0.52;0.13;;;20.60;23.80;21.20;93942.00;;;;10397053;28;46356;-62
2021/11/30 05:14:39;;;;;;;0.73;0.22;;;20.60;23.90;21.20;93941.00;;;;10395454;28;45247;-60
2021/11/30 05:19:40;;;;;;;0.82;0.15;;;20.70;23.70;21.30;93947.00;;;;10397653;28;45435;-62
2021/11/30 05:24:40;;;;;;;0.73;0.13;;;20.70;23.80;21.30;93940.00;;;;10379352;28;47550;-62
2021/11/30 05:29:41;;;;;;;0.32;0.13;;;20.80;23.80;21.30;93954.00;;;;10395689;28;45250;-61
2021/11/30 05:34:42;;;;;;;0.10;0.10;;;20.80;23.80;21.30;93947.00;;;;10395241;28;45223;-62
2021/11/30 05:39:42;;;;;;;0.47;0.20;;;20.80;23.80;21.30;93952.00;;;;10396332;28;46548;-62
2021/11/30 05:44:43;;;;;;;0.75;0.20;;;20.80;23.80;21.40;93943.00;;;;10393201;28;46768;-64
2021/11/30 05:49:44;;;;;;;0.28;0.20;;;20.80;23.70;21.40;93956.00;;;;10392585;28;45293;-63
2021/11/30 05:54:44;;;;;;;1.17;0.20;;;20.80;23.60;21.40;93959.00;;;;10397027;28;45484;-61
2021/11/30 05:59:46;;;;;;;0.60;0.17;;;20.90;23.70;21.40;93964.00;;;;10395148;28;46027;-62
2021/11/30 06:04:47;;;;;;;0.47;0.10;;;20.90;23.70;21.40;93961.00;;;;10395733;28;45435;-61
2021/11/30 06:09:47;;;;;;;0.75;0.20;;;20.90;23.60;21.40;93958.00;;;;10394208;28;46566;-62
2021/11/30 06:14:48;;;;;;;0.20;0.20;;;20.90;23.70;21.40;93951.00;;;;10395484;28;45405;-61
2021/11/30 06:19:49;;;;;;;0.98;0.20;;;20.90;23.60;21.40;93952.00;;;;10394220;28;46669;-61
2021/11/30 06:24:50;;;;;;;0.20;0.17;;;20.90;23.60;21.40;93966.00;;;;10396388;28;45275;-61
2021/11/30 06:29:50;;;;;;;0.57;0.15;;;20.90;23.50;21.50;93954.00;;;;10395949;28;45340;-61
2021/11/30 06:34:52;;;;;;;0.40;0.30;;;20.90;23.50;21.50;93963.00;;;;10394822;28;45920;-62
2021/11/30 06:39:53;;;;;;;0.22;0.10;;;20.90;23.50;21.50;93952.00;;;;10395489;28;45243;-63
2021/11/30 06:44:54;;;;;;;0.50;0.20;;;20.90;23.50;21.50;93960.00;;;;10395794;28;45240;-61
2021/11/30 06:49:55;;;;;;;0.45;0.20;;;21.00;23.50;21.50;93961.00;;;;10394026;28;45793;-62
2021/11/30 06:54:55;;;;;;;0.38;0.25;;;21.00;23.60;21.50;93964.00;;;;10377685;28;47480;-62
2021/11/30 07:00:01;;;;;;;0.28;0.20;;;21.00;23.60;21.50;93968.00;;;;10393083;28;46076;-61
2021/11/30 07:05:16;;;;;;;0.60;0.20;;;21.00;23.60;21.50;93969.00;;;;10394909;28;45835;-61
2021/11/30 07:15:24;;;;;;;0.35;0.13;;;21.00;24.10;21.50;93966.00;;;;10394953;28;45277;-64
2021/11/30 07:20:25;;;;;;;0.73;0.40;;;21.00;23.60;21.40;93970.00;;;;10394024;28;45189;-63
2021/11/30 07:25:25;;;;;;;0.40;0.17;;;20.90;23.30;21.50;93970.00;;;;10391602;28;45183;-64
2021/11/30 07:30:26;;;;;;;0.80;0.20;;;21.00;23.40;21.50;93967.00;;;;10306362;28;47129;-64
2021/11/30 07:35:30;;;;;;;0.65;0.30;;;21.00;23.40;21.50;93960.00;;;;10323674;28;46323;-64
2021/11/30 07:40:31;;;;;;;0.95;0.30;;;21.00;23.40;21.50;93950.00;;;;10301820;28;47652;-64
2021/11/30 07:45:32;;;;;;;0.68;0.28;;;21.00;23.40;21.50;93964.00;;;;10301715;28;48415;-64
2021/11/30 07:50:33;;;;;;;0.50;0.30;;;21.00;23.40;21.50;93969.00;;;;10334366;28;48182;-63
2021/11/30 07:55:34;;;;;;;0.40;0.20;;;21.00;23.50;21.50;93955.00;;;;10319010;28;45361;-64
2021/11/30 08:00:35;;;;;;;1.15;0.22;;;21.00;23.50;21.40;93958.00;;;;10317926;28;45514;-65
2021/11/30 08:05:36;;;;;;;2.08;0.40;;;21.00;23.50;21.50;93956.00;;;;10317740;28;46666;-63
2021/11/30 08:10:37;;;;;;;2.85;0.40;;;21.00;23.10;21.50;93938.00;;;;10317011;28;46496;-66
2021/11/30 08:15:38;;;;;;;0.28;0.20;;;21.00;23.40;21.50;93964.00;;;;10330878;28;45466;-64
2021/11/30 08:20:38;;;;;;;0.35;0.20;;;21.10;23.50;21.50;93959.00;;;;10398189;28;45513;-63
2021/11/30 08:25:40;;;;;;;0.20;0.10;;;21.00;23.40;21.60;93975.00;;;;10364232;28;45614;-62
2021/11/30 08:30:42;;;;;;;0.52;0.10;;;21.10;23.60;21.60;93955.00;;;;10356414;28;45152;-62
2021/11/30 08:35:43;;;;;;;0.30;0.15;;;21.10;23.50;21.60;93942.00;;;;10356272;28;46349;-62
2021/11/30 08:40:44;;;;;;;0.30;0.10;;;21.10;23.50;21.60;93944.00;;;;10356073;28;45227;-62
2021/11/30 08:45:44;;;;;;;0.60;0.30;;;21.10;23.60;21.60;93937.00;;;;10356943;28;45441;-62
2021/11/30 08:50:45;;;;;;;0.95;0.20;;;21.10;23.60;21.70;93931.00;;;;10356587;28;45189;-67
2021/11/30 08:55:46;;;;;;;0.30;0.20;;;21.20;24.00;21.70;93934.00;;;;10356919;28;48021;-65
2021/11/30 09:00:48;;;;;;;3.33;0.30;;;21.20;24.10;21.70;93920.00;;;;10356300;28;47451;-62
2021/11/30 09:05:49;;;;;;;0.47;0.30;;;21.20;24.00;21.50;93945.00;;;;10355353;28;47131;-62
2021/11/30 09:10:51;;;;;;;2.50;0.40;;;21.10;23.00;21.50;93935.00;;;;10354811;28;45489;-63
2021/11/30 09:15:52;;;;;;;0.90;0.30;;;21.10;22.70;21.50;93952.00;;;;10354593;28;45151;-62
2021/11/30 09:20:52;;;;;;;0.35;0.30;;;21.10;23.10;21.50;93948.00;;;;10355606;28;48042;-62
2021/11/30 09:25:55;;;;;;;0.50;0.30;;;21.10;23.00;21.50;93947.00;;;;10355289;28;47224;-62
2021/11/30 09:30:56;;;;;;;2.47;0.30;;;21.10;22.90;21.50;93955.00;;;;10356107;28;45566;-61
2021/11/30 09:35:57;;;;;;;2.30;0.40;;;21.00;22.60;21.50;93954.00;;;;10353725;28;46395;-62
2021/11/30 09:41:01;;;;;;;1.58;0.50;;;21.00;22.70;21.50;93956.00;;;;10355009;28;47285;-62
2021/11/30 09:46:03;;;;;;;0.60;0.20;;;21.00;22.60;21.50;93941.00;;;;10355170;28;45238;-62
2021/11/30 09:51:05;;;;;;;1.33;0.30;;;21.00;22.60;21.50;93924.00;;;;10353846;28;45361;-62
2021/11/30 09:56:06;;;;;;;0.68;0.20;;;21.00;22.40;21.50;93935.00;;;;10354306;28;46196;-62
2021/11/30 10:01:10;;;;;;;1.17;0.20;;;21.00;22.40;21.50;93930.00;;;;10354338;28;46194;-64
2021/11/30 10:06:12;;;;;;;1.27;0.30;;;21.00;22.40;21.50;93929.00;;;;10354106;28;45403;-62
2021/11/30 10:11:35;;;;;;;1.40;0.20;;;21.00;22.50;21.50;93933.00;;;;10337266;28;47090;-61
2021/11/30 10:16:37;;;;;;;0.47;0.30;;;21.00;22.50;21.50;93944.00;;;;10337782;28;47380;-63
2021/11/30 10:21:38;;;;;;;1.27;0.40;;;21.00;22.40;21.40;93925.00;;;;10355347;28;45325;-63
2021/11/30 10:26:43;;;;;;;2.22;0.35;;;21.00;22.20;21.40;93921.00;;;;10337448;28;47027;-63
2021/11/30 10:31:48;;;;;;;0.80;0.20;;;21.00;22.40;21.40;93912.00;;;;10354052;28;45225;-62
2021/11/30 10:37:06;;;;;;;1.58;0.20;;;21.00;22.40;21.30;93904.00;;;;10336911;28;47823;-62
2021/11/30 10:42:21;;;;;;;1.45;0.30;;;20.90;22.50;21.40;93900.00;;;;10343286;28;46788;-66
2021/11/30 10:47:27;;;;;;;2.35;0.30;;;20.90;22.80;21.50;93909.00;;;;10352224;28;45425;-67
2021/11/30 10:52:32;;;;;;;0.57;0.20;;;20.90;23.00;21.50;93912.00;;;;10353406;28;47359;-68
2021/11/30 10:57:34;;;;;;;0.63;0.20;;;21.00;23.30;21.50;93905.00;;;;10378555;28;45435;-66
2021/11/30 11:03:03;;;;;;;0.15;0.15;;;21.00;23.40;21.50;93903.00;;;;10361226;28;46130;-65
2021/11/30 11:08:16;;;;;;;0.60;0.20;;;21.00;23.60;21.50;93900.00;;;;10355479;28;47362;-67
2021/11/30 11:13:21;;;;;;;1.02;0.20;;;21.10;23.60;21.50;93881.00;;;;10345498;28;47827;-67
2021/11/30 11:18:33;;;;;;;1.42;0.30;;;21.10;23.60;21.60;93892.00;;;;10351094;28;47312;-63
2021/11/30 11:23:36;;;;;;;0.73;0.10;;;21.10;23.70;21.60;93905.00;;;;10371762;28;47242;-63
2021/11/30 11:28:37;;;;;;;0.73;0.20;;;21.10;23.70;21.70;93891.00;;;;10361850;28;45539;-62
2021/11/30 11:33:38;;;;;;;0.28;0.20;;;21.10;23.70;21.70;93905.00;;;;10353453;28;45269;-62
2021/11/30 11:38:39;;;;;;;2.25;0.40;;;21.10;23.70;21.70;93899.00;;;;10352904;28;45155;-62
2021/11/30 11:43:41;;;;;;;0.60;0.10;;;21.10;23.70;21.70;93889.00;;;;10364676;28;46893;-63
2021/11/30 11:48:45;;;;;;;1.08;0.15;;;21.10;23.80;21.70;93876.00;;;;10378417;28;47205;-69
2021/11/30 11:53:55;;;;;;;0.50;0.20;;;21.20;24.20;21.60;93882.00;;;;10392678;28;47318;-66
2021/11/30 11:59:18;;;;;;;1.65;0.20;;;21.10;24.10;21.60;93877.00;;;;10392505;28;46112;-69
2021/11/30 12:04:19;;;;;;;0.35;0.20;;;21.10;24.30;21.60;93882.00;;;;10409845;28;45512;-69
2021/11/30 12:09:32;;;;;;;0.52;0.20;;;21.10;24.40;21.70;93858.00;;;;10363062;28;47272;-62
2021/11/30 12:14:46;;;;;;;0.30;0.10;;;21.20;24.70;21.70;93840.00;;;;10353409;28;45217;-68
2021/11/30 12:20:00;;;;;;;2.20;0.20;;;21.20;24.60;21.70;93841.00;;;;10386572;28;45315;-66
2021/11/30 12:25:04;;;;;;;0.98;0.13;;;21.20;24.70;21.70;93838.00;;;;10383183;28;47489;-63
2021/11/30 12:30:06;;;;;;;0.60;0.22;;;21.20;24.60;21.70;93838.00;;;;10396280;28;46977;-67
2021/11/30 12:35:09;;;;;;;0.55;0.17;;;21.20;24.80;21.70;93821.00;;;;10362282;28;45350;-68
2021/11/30 12:40:15;;;;;;;1.60;0.20;;;21.20;24.60;21.70;93814.00;;;;10383059;28;46070;-65
2021/11/30 12:45:43;;;;;;;0.47;0.20;;;21.20;24.80;21.80;93821.00;;;;10385402;28;47041;-63
2021/11/30 12:50:44;;;;;;;6.30;1.38;;;21.30;24.70;21.70;93813.00;;;;10375175;28;46649;-64
2021/11/30 12:55:53;;;;;;;7.93;2.20;;;21.20;24.10;21.70;93810.00;;;;10369819;28;46915;-64
2021/11/30 13:01:18;;;;;;;5.43;1.60;;;21.20;24.30;21.70;93803.00;;;;10387259;28;46955;-67
2021/11/30 13:06:19;;;;;;;4.32;1.60;;;21.20;24.60;21.70;93791.00;;;;10368083;28;45170;-67
2021/11/30 13:11:29;;;;;;;4.40;1.40;;;21.20;24.60;21.70;93801.00;;;;10362460;28;47026;-67
2021/11/30 13:16:36;;;;;;;2.15;1.00;;;21.20;24.70;21.80;93796.00;;;;10387351;28;46308;-67
2021/11/30 13:21:42;;;;;;;3.22;1.02;;;21.20;24.70;21.80;93815.00;;;;10374272;28;45461;-61
2021/11/30 13:26:43;;;;;;;4.17;0.77;;;21.30;24.80;21.80;93811.00;;;;10379271;28;45928;-68
2021/11/30 13:31:59;;;;;;;1.95;0.80;;;21.30;24.70;21.80;93834.00;;;;10396628;28;46830;-68
2021/11/30 13:37:11;;;;;;;1.42;0.50;;;21.30;24.70;21.70;93811.00;;;;10378018;28;46994;-67
2021/11/30 13:42:12;;;;;;;1.05;0.40;;;21.30;24.70;21.80;93807.00;;;;10374695;28;46984;-68
2021/11/30 13:47:12;;;;;;;1.73;0.50;;;21.30;24.70;21.80;93814.00;;;;10397593;28;47319;-65
2021/11/30 13:52:21;;;;;;;1.30;0.50;;;21.30;24.90;21.70;93822.00;;;;10396178;28;45614;-65
2021/11/30 13:57:25;;;;;;;1.58;0.38;;;21.30;24.70;21.60;93815.00;;;;10394353;28;46712;-62
2021/11/30 14:02:39;;;;;;;0.57;0.30;;;21.20;24.00;21.60;93828.00;;;;10395295;28;47054;-62
2021/11/30 14:07:41;;;;;;;0.75;0.30;;;21.20;23.50;21.50;93837.00;;;;10394746;28;45189;-62
2021/11/30 14:12:42;;;;;;;2.85;0.60;;;21.10;23.80;21.50;93848.00;;;;10395129;28;45350;-62
2021/11/30 14:17:43;;;;;;;2.83;0.40;;;21.10;23.40;21.40;93851.00;;;;10394403;28;46896;-62
2021/11/30 14:22:45;;;;;;;3.80;0.55;;;21.10;23.50;21.50;93835.00;;;;10396081;28;45221;-62
2021/11/30 14:27:58;;;;;;;7.20;0.60;;;21.00;23.90;21.40;93834.00;;;;10377713;28;46996;-62
2021/11/30 14:33:14;;;;;;;6.72;0.63;;;21.00;24.00;21.40;93848.00;;;;10394429;28;45871;-62
2021/11/30 14:38:39;;;;;;;4.13;0.60;;;20.90;24.10;21.40;93845.00;;;;10393930;28;46300;-61
2021/11/30 14:43:41;;;;;;;12.23;1.33;;;20.90;24.20;21.30;93841.00;;;;10394909;28;46505;-62
2021/11/30 14:48:43;;;;;;;13.65;0.90;;;20.90;24.50;21.30;93835.00;;;;10374518;28;45587;-63
2021/11/30 14:53:50;;;;;;;12.70;0.80;;;20.90;24.70;21.40;93836.00;;;;10353702;28;46791;-64
2021/11/30 14:58:53;;;;;;;;;;;20.90;24.80;21.40;93833.00;;;;10352959;28;46927;-63
2021/11/30 15:04:10;;;;;;;8.02;0.93;;;20.90;24.80;21.40;93836.00;;;;10354479;28;46064;-63
2021/11/30 15:09:23;;;;;;;9.35;0.80;;;20.90;24.80;21.40;93826.00;;;;10351998;28;45609;-63
2021/11/30 15:14:34;;;;;;;5.07;0.73;;;20.90;24.70;21.40;93826.00;;;;10353665;28;45605;-63
2021/11/30 15:19:39;;;;;;;4.47;0.95;;;20.90;24.70;21.40;93829.00;;;;10351255;28;47334;-63
2021/11/30 15:24:46;;;;;;;3.88;0.55;;;20.90;24.80;21.40;93839.00;;;;10351010;28;47469;-63
2021/11/30 15:29:50;;;;;;;3.92;0.60;;;20.90;24.90;21.40;93837.00;;;;10351968;28;46696;-64
2021/11/30 15:34:51;;;;;;;2.97;0.50;;;20.90;25.00;21.50;93833.00;;;;10352028;28;47253;-63
2021/11/30 15:39:53;;;;;;;5.63;0.65;;;20.90;25.00;21.40;93807.00;;;;10351742;28;46580;-63
2021/11/30 15:44:55;;;;;;;6.03;0.45;;;20.90;25.00;21.50;93821.00;;;;10351992;28;45392;-63
2021/11/30 15:49:55;;;;;;;3.60;0.68;;;20.90;25.00;21.40;93830.00;;;;10352332;28;47188;-65
2021/11/30 15:54:59;;;;;;;2.15;0.40;;;21.00;24.80;21.40;93833.00;;;;10359145;28;46476;-64
2021/11/30 16:00:05;;;;;;;3.30;0.45;;;20.90;25.00;21.40;93838.00;;;;10358212;28;45192;-62
2021/11/30 16:05:07;;;;;;;;;;;20.90;25.40;21.40;93832.00;;;;10358172;28;47042;-61
2021/11/30 16:10:09;;;;;;;7.45;0.40;;;20.90;25.20;21.40;93850.00;;;;10357521;28;45385;-61
2021/11/30 16:15:09;;;;;;;1.60;0.47;;;20.90;25.20;21.40;93840.00;;;;10393890;28;46253;-62
2021/11/30 16:20:10;;;;;;;2.50;0.25;;;20.90;25.10;21.40;93846.00;;;;10398316;28;45195;-61
2021/11/30 16:25:11;;;;;;;0.73;0.30;;;20.90;25.10;21.40;93850.00;;;;10400024;28;45313;-61
2021/11/30 16:30:12;;;;;;;3.40;0.30;;;20.90;25.00;21.40;93847.00;;;;10398107;28;45417;-62
2021/11/30 16:35:13;;;;;;;1.88;0.20;;;20.90;25.00;21.40;93827.00;;;;10398240;28;46235;-61
2021/11/30 16:40:14;;;;;;;1.48;0.20;;;20.90;25.00;21.40;93831.00;;;;10398086;28;45801;-66
2021/11/30 16:45:14;;;;;;;1.45;0.28;;;20.90;25.00;21.50;93829.00;;;;10397862;28;48027;-65
2021/11/30 16:50:15;;;;;;;0.32;0.28;;;21.00;25.10;21.50;93821.00;;;;10398138;28;45369;-66
2021/11/30 16:55:18;;;;;;;0.80;0.40;;;21.00;25.00;21.60;93825.00;;;;10381747;28;47562;-62
2021/11/30 17:00:19;;;;;;;0.50;0.32;;;21.10;25.20;21.60;93831.00;;;;10380716;28;46722;-64
2021/11/30 17:05:20;;;;;;;0.55;0.30;;;21.10;25.50;21.50;93824.00;;;;10398964;28;45308;-64
2021/11/30 17:10:21;;;;;;;0.40;0.32;;;21.00;25.20;21.50;93848.00;;;;10379824;28;46968;-65
2021/11/30 17:15:21;;;;;;;0.60;0.20;;;21.00;25.20;21.50;93835.00;;;;10380550;28;47023;-65
2021/11/30 17:20:23;;;;;;;0.60;0.20;;;21.00;25.20;21.50;93823.00;;;;10397949;28;45176;-64
2021/11/30 17:25:24;;;;;;;0.60;0.30;;;21.00;25.30;21.50;93816.00;;;;10396812;28;47019;-64
2021/11/30 17:30:29;;;;;;;1.05;0.30;;;21.00;25.30;21.60;93835.00;;;;10374323;28;48175;-61
2021/11/30 17:35:30;;;;;;;1.38;0.20;;;21.10;25.50;21.60;93849.00;;;;10351710;28;47778;-63
2021/11/30 17:40:31;;;;;;;1.33;0.30;;;21.10;25.40;21.60;93839.00;;;;10360846;28;45320;-64
2021/11/30 17:45:35;;;;;;;2.47;0.40;;;21.10;25.50;21.50;93854.00;;;;10323735;28;45259;-63
2021/11/30 17:50:36;;;;;;;1.17;0.30;;;21.00;25.40;21.50;93831.00;;;;10316604;28;46963;-62
2021/11/30 17:55:37;;;;;;;1.73;0.20;;;21.00;25.40;21.50;93837.00;;;;10332813;28;45222;-64
2021/11/30 18:00:38;;;;;;;0.47;0.20;;;21.00;25.40;21.50;93842.00;;;;10315031;28;46767;-64
2021/11/30 18:05:38;;;;;;;0.17;0.10;;;21.00;25.40;21.50;93858.00;;;;10333761;28;46225;-63
2021/11/30 18:10:39;;;;;;;0.93;0.38;;;21.00;25.40;21.50;93847.00;;;;10345080;28;45969;-64
2021/11/30 18:15:42;;;;;;;0.50;0.30;;;21.00;25.40;21.50;93850.00;;;;10329404;28;47535;-64
2021/11/30 18:20:43;;;;;;;0.73;0.20;;;21.00;25.40;21.50;93859.00;;;;10343460;28;45750;-64
2021/11/30 18:25:45;;;;;;;1.35;0.38;;;21.00;25.40;21.50;93879.00;;;;10348435;28;45186;-64
2021/11/30 18:30:46;;;;;;;0.20;0.20;;;21.00;25.50;21.50;93864.00;;;;10337735;28;45200;-64
2021/11/30 18:35:47;;;;;;;0.20;0.10;;;21.00;25.50;21.50;93881.00;;;;10314255;28;48220;-64
2021/11/30 18:40:49;;;;;;;0.35;0.20;;;21.00;25.50;21.50;93874.00;;;;10348828;28;47971;-63
2021/11/30 18:45:49;;;;;;;1.23;0.40;;;21.00;25.50;21.50;93869.00;;;;10314489;28;47782;-62
2021/11/30 18:50:50;;;;;;;0.55;0.20;;;21.00;25.50;21.50;93854.00;;;;10335321;28;46826;-64
2021/11/30 18:55:51;;;;;;;1.08;0.45;;;21.00;25.50;21.50;93865.00;;;;10352020;28;45140;-64
2021/11/30 19:00:52;;;;;;;2.50;0.93;;;21.00;25.50;21.50;93856.00;;;;10352038;28;47966;-64
2021/11/30 19:05:56;;;;;;;1.50;0.28;;;21.00;25.60;21.50;93832.00;;;;10392743;28;45306;-64
2021/11/30 19:10:58;;;;;;;0.63;0.20;;;21.00;26.10;21.60;93837.00;;;;10392293;28;47433;-63
2021/11/30 19:16:00;;;;;;;0.52;0.30;;;21.00;25.60;21.50;93844.00;;;;10392041;28;45178;-61
2021/11/30 19:21:02;;;;;;;0.55;0.22;;;21.00;25.60;21.50;93842.00;;;;10391985;28;47970;-64
2021/11/30 19:26:03;;;;;;;0.68;0.30;;;21.00;25.60;21.50;93825.00;;;;10391686;28;46944;-64
2021/11/30 19:31:04;;;;;;;0.60;0.20;;;21.00;25.70;21.60;93825.00;;;;10391802;28;46464;-64
2021/11/30 19:36:05;;;;;;;0.82;0.20;;;21.00;25.70;21.60;93822.00;;;;10391803;28;45366;-64
2021/11/30 19:41:06;;;;;;;0.57;0.22;;;21.10;25.70;21.60;93825.00;;;;10391449;28;48032;-64
2021/11/30 19:46:07;;;;;;;0.50;0.28;;;21.10;25.80;21.50;93827.00;;;;10375132;28;48185;-64
2021/11/30 19:51:10;;;;;;;0.50;0.30;;;21.10;25.80;21.60;93848.00;;;;10391540;28;45518;-63
2021/11/30 19:56:11;;;;;;;0.60;0.20;;;21.10;26.40;21.80;93819.00;;;;10391431;28;47387;-63
2021/11/30 20:06:14;;;;;;;0.35;0.28;;;21.20;25.70;22.00;93824.00;;;;10390412;28;45216;-63
2021/11/30 20:11:16;;;;;;;0.50;0.30;;;21.40;25.70;22.00;93829.00;;;;10374215;28;46817;-63
2021/11/30 20:16:17;;;;;;;0.88;0.30;;;21.40;25.70;22.10;93833.00;;;;10390831;28;45182;-63
2021/11/30 20:21:17;;;;;;;0.90;0.10;;;21.50;25.70;22.10;93834.00;;;;10390092;28;47282;-63
2021/11/30 20:26:18;;;;;;;2.17;0.40;;;21.50;25.70;22.20;93823.00;;;;10390962;28;45292;-63
2021/11/30 20:31:19;;;;;;;0.25;0.10;;;21.60;25.70;22.20;93803.00;;;;10392095;28;45477;-64
2021/11/30 20:41:42;;;;;;;0.20;0.20;;;21.70;25.70;22.30;93812.00;;;;10397763;28;45136;-62
2021/11/30 20:46:43;;;;;;;0.88;0.20;;;21.70;25.70;22.30;93806.00;;;;10396977;28;45651;-63
2021/11/30 20:51:45;;;;;;;0.20;0.10;;;21.70;25.60;22.30;93793.00;;;;10396749;28;45463;-63
2021/11/30 20:56:48;;;;;;;0.50;0.20;;;21.70;25.60;22.30;93785.00;;;;10380287;28;48102;-63
2021/11/30 21:07:08;;;;;;;0.95;0.20;;;21.80;25.60;22.30;93768.00;;;;10395938;28;45575;-64
2021/11/30 21:12:09;;;;;;;0.20;0.13;;;21.80;25.60;22.40;93780.00;;;;10396780;28;45494;-61
2021/11/30 21:17:09;;;;;;;1.08;0.20;;;21.80;25.60;22.30;93777.00;;;;10374092;28;47161;-63
2021/11/30 21:22:10;;;;;;;0.35;0.10;;;21.80;25.60;22.30;93784.00;;;;10395271;28;48349;-61
2021/11/30 21:27:12;;;;;;;0.13;0.10;;;21.80;25.60;22.30;93757.00;;;;10395647;28;46349;-60
2021/11/30 21:32:13;;;;;;;0.28;0.20;;;21.80;25.70;22.20;93772.00;;;;10397370;28;46366;-61
2021/11/30 21:37:19;;;;;;;0.20;0.13;;;21.70;25.70;22.20;93760.00;;;;10395108;28;45492;-62
2021/11/30 21:42:20;;;;;;;0.80;0.20;;;21.70;25.70;22.20;93774.00;;;;10397511;28;46753;-62
2021/11/30 21:47:22;;;;;;;0.20;0.20;;;21.60;25.70;22.10;93770.00;;;;10394674;28;45167;-61
2021/11/30 21:52:22;;;;;;;0.10;0.10;;;21.60;25.80;22.10;93751.00;;;;10395581;28;46166;-62
2021/11/30 21:57:23;;;;;;;0.38;0.28;;;21.60;25.80;22.10;93766.00;;;;10394421;28;47291;-61
2021/11/30 22:02:24;;;;;;;0.20;0.10;;;21.50;25.80;22.10;93765.00;;;;10394615;28;45261;-61
2021/11/30 22:07:25;;;;;;;0.17;0.10;;;21.50;25.80;22.10;93753.00;;;;10394117;28;46555;-62
2021/11/30 22:12:27;;;;;;;0.20;0.10;;;21.50;25.80;22.10;93754.00;;;;10397171;28;45601;-61
2021/11/30 22:17:28;;;;;;;2.72;0.20;;;21.50;25.90;22.00;93740.00;;;;10393810;28;46125;-63
2021/11/30 22:22:29;;;;;;;0.10;0.10;;;21.50;25.90;22.00;93746.00;;;;10394121;28;47639;-62
2021/11/30 22:27:29;;;;;;;0.00;0.00;;;21.40;25.80;22.00;93720.00;;;;10378037;28;47045;-64
2021/11/30 22:32:30;;;;;;;0.10;0.10;;;21.40;25.90;22.00;93720.00;;;;10395568;28;46650;-61
2021/11/30 22:37:30;;;;;;;0.10;0.10;;;21.40;25.90;22.00;93709.00;;;;10376830;28;45664;-61
2021/11/30 22:42:33;;;;;;;0.10;0.10;;;21.40;25.90;22.00;93688.00;;;;10393656;28;45839;-62